createdAt,value
2018-04-17T00:00:35.680Z,100968.02
2018-04-17T00:03:03.219Z,100971.02
2018-04-17T00:05:30.782Z,100967.77
2018-04-17T00:07:58.311Z,100966.44
2018-04-17T00:10:25.863Z,100978.53
2018-04-17T00:12:54.175Z,100981.11
2018-04-17T00:15:22.237Z,100983.84
2018-04-17T00:17:49.841Z,100980.38
2018-04-17T00:20:17.478Z,100984.53
2018-04-17T00:22:45.083Z,100985.86
2018-04-17T00:25:12.770Z,100980.70
2018-04-17T00:27:40.328Z,100988.02
2018-04-17T00:30:08.054Z,100989.02
2018-04-17T00:32:36.866Z,100986.77
2018-04-17T00:35:04.415Z,100992.02
2018-04-17T00:37:31.971Z,100994.69
2018-04-17T00:39:59.938Z,100994.19
2018-04-17T00:42:28.187Z,101003.33
2018-04-17T00:44:56.369Z,100995.52
2018-04-17T00:47:23.901Z,100995.66
2018-04-17T00:49:51.792Z,100999.07
2018-04-17T00:52:19.335Z,101002.48
2018-04-17T00:54:46.885Z,101006.20
2018-04-17T00:57:14.471Z,101008.20
2018-04-17T00:59:41.993Z,101003.84
2018-04-17T01:02:09.598Z,100996.77
2018-04-17T01:04:37.409Z,100999.09
2018-04-17T01:07:04.978Z,101003.97
2018-04-17T01:09:32.522Z,101005.72
2018-04-17T01:12:00.700Z,101003.72
2018-04-17T01:14:28.948Z,101007.14
2018-04-17T01:16:56.493Z,101015.05
2018-04-17T01:19:24.032Z,101017.96
2018-04-17T01:21:51.591Z,101019.05
2018-04-17T01:24:19.312Z,101023.59
2018-04-17T01:26:47.615Z,101022.63
2018-04-17T01:29:15.152Z,101025.78
2018-04-17T01:31:43.042Z,101018.28
2018-04-17T01:34:10.590Z,101018.53
2018-04-17T01:36:38.494Z,101012.45
2018-04-17T01:39:07.118Z,101006.37
2018-04-17T01:41:35.299Z,101009.84
2018-04-17T01:44:05.458Z,101018.34
2018-04-17T01:46:32.995Z,101022.75
2018-04-17T01:49:01.291Z,101018.34
2018-04-17T01:51:28.829Z,101016.37
2018-04-17T01:53:56.367Z,101023.37
2018-04-17T01:56:23.963Z,101022.53
2018-04-17T01:58:51.498Z,101026.91
2018-04-17T02:01:19.083Z,101031.83
2018-04-17T02:03:46.730Z,101027.82
2018-04-17T02:06:14.282Z,101020.81
2018-04-17T02:08:41.834Z,101029.19
2018-04-17T02:11:10.287Z,101027.02
2018-04-17T02:13:39.486Z,101027.68
2018-04-17T02:16:07.254Z,101029.09
2018-04-17T02:18:34.795Z,101026.22
2018-04-17T02:21:02.350Z,101033.05
2018-04-17T02:23:30.063Z,101025.47
2018-04-17T02:25:57.641Z,101025.95
2018-04-17T02:28:25.206Z,101033.20
2018-04-17T02:30:52.763Z,101025.48
2018-04-17T02:33:20.302Z,101028.30
2018-04-17T02:35:47.879Z,101026.91
2018-04-17T02:38:16.445Z,101025.06
2018-04-17T02:40:44.779Z,101031.52
2018-04-17T02:43:12.688Z,101027.99
2018-04-17T02:45:41.074Z,101029.23
2018-04-17T02:48:09.343Z,101033.49
2018-04-17T02:50:37.205Z,101028.79
2018-04-17T02:53:04.764Z,101032.40
2018-04-17T02:55:33.637Z,101023.12
2018-04-17T02:58:01.167Z,101020.36
2018-04-17T03:00:28.696Z,101023.36
2018-04-17T03:02:56.254Z,101019.59
2018-04-17T03:05:23.805Z,101026.72
2018-04-17T03:07:51.344Z,101024.95
2018-04-17T03:10:19.480Z,101035.02
2018-04-17T03:12:47.974Z,101026.53
2018-04-17T03:15:16.359Z,101025.44
2018-04-17T03:17:43.951Z,101032.44
2018-04-17T03:20:11.482Z,101031.43
2018-04-17T03:22:39.060Z,101032.35
2018-04-17T03:25:06.628Z,101031.34
2018-04-17T03:27:34.370Z,101031.76
2018-04-17T03:30:02.338Z,101033.69
2018-04-17T03:32:29.891Z,101026.50
2018-04-17T03:34:57.412Z,101028.58
2018-04-17T03:37:24.981Z,101027.13
2018-04-17T03:39:53.167Z,101028.83
2018-04-17T03:42:21.526Z,101026.30
2018-04-17T03:44:49.910Z,101026.72
2018-04-17T03:47:17.459Z,101031.08
2018-04-17T03:49:45.802Z,101036.22
2018-04-17T03:52:13.352Z,101030.55
2018-04-17T03:54:40.890Z,101037.91
2018-04-17T03:57:08.686Z,101045.24
2018-04-17T03:59:36.283Z,101043.70
2018-04-17T04:02:04.161Z,101041.03
2018-04-17T04:04:31.826Z,101039.91
2018-04-17T04:06:59.357Z,101037.77
2018-04-17T04:09:27.901Z,101048.52
2018-04-17T04:11:56.062Z,101045.99
2018-04-17T04:14:24.468Z,101051.08
2018-04-17T04:17:03.952Z,101056.84
2018-04-17T04:19:43.344Z,101052.17
2018-04-17T04:22:22.710Z,101049.44
2018-04-17T04:25:02.372Z,101051.78
2018-04-17T04:27:29.957Z,101055.46
2018-04-17T04:29:57.519Z,101061.64
2018-04-17T04:32:25.975Z,101066.39
2018-04-17T04:34:53.574Z,101065.70
2018-04-17T04:37:21.151Z,101069.21
2018-04-17T04:39:49.459Z,101064.20
2018-04-17T04:42:17.569Z,101071.05
2018-04-17T04:44:45.839Z,101068.70
2018-04-17T04:47:13.377Z,101069.69
2018-04-17T04:49:41.530Z,101074.65
2018-04-17T04:52:09.105Z,101082.55
2018-04-17T04:54:36.718Z,101080.87
2018-04-17T04:57:04.383Z,101086.69
2018-04-17T04:59:31.981Z,101089.45
2018-04-17T05:01:59.520Z,101081.61
2018-04-17T05:04:27.230Z,101091.80
2018-04-17T05:06:54.775Z,101093.81
2018-04-17T05:09:22.349Z,101095.45
2018-04-17T05:11:50.647Z,101099.40
2018-04-17T05:14:18.992Z,101105.75
2018-04-17T05:16:46.590Z,101107.23
2018-04-17T05:19:14.105Z,101103.00
2018-04-17T05:21:41.690Z,101107.07
2018-04-17T05:24:09.444Z,101102.97
2018-04-17T05:26:37.282Z,101101.78
2018-04-17T05:29:04.905Z,101106.72
2018-04-17T05:31:32.465Z,101108.20
2018-04-17T05:34:00.019Z,101119.43
2018-04-17T05:36:27.621Z,101123.44
2018-04-17T05:38:55.871Z,101122.25
2018-04-17T05:41:24.138Z,101117.78
2018-04-17T05:43:52.110Z,101120.07
2018-04-17T05:46:19.658Z,101115.57
2018-04-17T05:48:47.824Z,101106.42
2018-04-17T05:51:15.374Z,101099.24
2018-04-17T05:53:42.911Z,101089.16
2018-04-17T05:56:10.492Z,101092.83
2018-04-17T05:58:38.210Z,101095.76
2018-04-17T06:01:05.762Z,101099.50
2018-04-17T06:03:33.336Z,101102.61
2018-04-17T06:06:00.883Z,101109.40
2018-04-17T06:08:28.420Z,101124.55
2018-04-17T06:10:56.342Z,101128.70
2018-04-17T06:13:24.519Z,101126.26
2018-04-17T06:15:52.865Z,101141.50
2018-04-17T06:18:20.407Z,101138.97
2018-04-17T06:20:47.977Z,101146.17
2018-04-17T06:23:15.545Z,101144.34
2018-04-17T06:25:43.563Z,101145.59
2018-04-17T06:28:11.100Z,101151.06
2018-04-17T06:30:38.809Z,101159.65
2018-04-17T06:33:06.488Z,101153.71
2018-04-17T06:35:34.118Z,101157.34
2018-04-17T06:38:01.654Z,101156.48
2018-04-17T06:40:29.900Z,101159.83
2018-04-17T06:42:58.044Z,101158.25
2018-04-17T06:45:26.172Z,101164.78
2018-04-17T06:47:54.597Z,101163.95
2018-04-17T06:50:22.147Z,101165.44
2018-04-17T06:52:49.773Z,101170.89
2018-04-17T06:55:17.328Z,101175.14
2018-04-17T06:57:44.885Z,101169.64
2018-04-17T07:00:12.460Z,101170.98
2018-04-17T07:02:40.040Z,101166.59
2018-04-17T07:05:07.673Z,101166.66
2018-04-17T07:07:35.380Z,101163.20
2018-04-17T07:10:03.619Z,101178.25
2018-04-17T07:12:32.002Z,101175.73
2018-04-17T07:15:00.388Z,101181.11
2018-04-17T07:17:27.974Z,101186.55
2018-04-17T07:19:55.523Z,101180.31
2018-04-17T07:22:23.205Z,101183.45
2018-04-17T07:24:50.778Z,101190.13
2018-04-17T07:27:18.316Z,101189.04
2018-04-17T07:29:45.875Z,101188.20
2018-04-17T07:32:13.449Z,101190.55
2018-04-17T07:34:41.010Z,101195.29
2018-04-17T07:37:08.918Z,101197.73
2018-04-17T07:39:37.410Z,101196.53
2018-04-17T07:42:05.561Z,101195.31
2018-04-17T07:44:33.787Z,101197.59
2018-04-17T07:47:13.157Z,101193.69
2018-04-17T07:49:41.351Z,101192.47
2018-04-17T07:52:08.894Z,101202.92
2018-04-17T07:57:03.415Z,101208.99
2018-04-17T07:59:30.979Z,101208.41
2018-04-17T08:01:58.519Z,101204.65
2018-04-17T08:04:26.140Z,101210.48
2018-04-17T08:06:53.700Z,101209.16
2018-04-17T08:09:21.344Z,101211.87
2018-04-17T08:11:49.622Z,101211.40
2018-04-17T08:14:17.896Z,101206.47
2018-04-17T08:16:45.422Z,101216.05
2018-04-17T08:19:12.957Z,101222.28
2018-04-17T08:21:40.513Z,101225.45
2018-04-17T08:24:08.152Z,101212.97
2018-04-17T08:26:35.712Z,101215.16
2018-04-17T08:29:03.270Z,101221.50
2018-04-17T08:31:30.833Z,101223.37
2018-04-17T08:33:58.372Z,101223.62
2018-04-17T08:36:25.969Z,101229.34
2018-04-17T08:38:54.027Z,101228.32
2018-04-17T08:41:22.263Z,101229.08
2018-04-17T08:43:50.493Z,101233.75
2018-04-17T08:46:18.026Z,101238.09
2018-04-17T08:48:46.046Z,101235.28
2018-04-17T08:51:13.618Z,101234.77
2018-04-17T08:53:41.166Z,101237.06
2018-04-17T08:56:08.798Z,101235.62
2018-04-17T08:58:36.520Z,101240.42
2018-04-17T09:01:04.073Z,101248.49
2018-04-17T09:03:31.757Z,101244.13
2018-04-17T09:05:59.285Z,101248.14
2018-04-17T09:08:26.836Z,101247.94
2018-04-17T09:10:55.120Z,101250.02
2018-04-17T09:13:23.454Z,101252.36
2018-04-17T09:15:51.422Z,101254.50
2018-04-17T09:18:18.966Z,101261.00
2018-04-17T09:20:46.509Z,101249.78
2018-04-17T09:23:14.098Z,101254.76
2018-04-17T09:25:41.657Z,101253.02
2018-04-17T09:28:09.237Z,101244.08
2018-04-17T09:30:36.959Z,101252.50
2018-04-17T09:33:04.502Z,101255.44
2018-04-17T09:35:32.083Z,101252.11
2018-04-17T09:37:59.650Z,101255.29
2018-04-17T09:40:27.920Z,101252.98
2018-04-17T09:42:56.305Z,101249.55
2018-04-17T09:45:24.287Z,101261.09
2018-04-17T09:47:52.498Z,101250.52
2018-04-17T09:50:20.062Z,101243.23
2018-04-17T09:52:47.616Z,101250.81
2018-04-17T09:55:16.012Z,101256.09
2018-04-17T09:57:43.554Z,101255.06
2018-04-17T10:00:11.123Z,101251.46
2018-04-17T10:02:38.769Z,101256.41
2018-04-17T10:05:06.580Z,101255.02
2018-04-17T10:07:34.131Z,101256.56
2018-04-17T10:10:02.308Z,101252.37
2018-04-17T10:12:31.465Z,101260.45
2018-04-17T10:15:00.208Z,101254.42
2018-04-17T10:17:27.767Z,101244.38
2018-04-17T10:19:55.322Z,101243.42
2018-04-17T10:22:22.902Z,101245.73
2018-04-17T10:24:50.449Z,101248.70
2018-04-17T10:27:18.071Z,101243.22
2018-04-17T10:29:45.691Z,101249.07
2018-04-17T10:32:13.303Z,101249.48
2018-04-17T10:34:40.848Z,101246.73
2018-04-17T10:37:08.731Z,101240.28
2018-04-17T10:39:37.024Z,101243.19
2018-04-17T10:42:05.753Z,101241.64
2018-04-17T10:44:33.819Z,101236.23
2018-04-17T10:47:01.357Z,101247.08
2018-04-17T10:49:29.897Z,101248.90
2018-04-17T10:51:57.510Z,101242.58
2018-04-17T10:54:25.067Z,101243.97
2018-04-17T10:56:52.676Z,101244.89
2018-04-17T10:59:20.279Z,101244.23
2018-04-17T11:01:47.888Z,101246.10
2018-04-17T11:04:15.451Z,101250.63
2018-04-17T11:06:43.009Z,101257.92
2018-04-17T11:09:10.567Z,101254.93
2018-04-17T11:11:39.355Z,101249.88
2018-04-17T11:14:07.769Z,101255.36
2018-04-17T11:16:35.314Z,101254.52
2018-04-17T11:19:02.854Z,101249.91
2018-04-17T11:21:30.458Z,101249.08
2018-04-17T11:23:57.986Z,101252.95
2018-04-17T11:26:25.547Z,101250.10
2018-04-17T11:28:53.133Z,101242.06
2018-04-17T11:31:20.680Z,101246.17
2018-04-17T11:33:48.237Z,101252.87
2018-04-17T11:36:15.811Z,101259.10
2018-04-17T11:38:43.883Z,101255.38
2018-04-17T11:41:12.027Z,101251.16
2018-04-17T11:43:40.537Z,101250.27
2018-04-17T11:46:08.156Z,101255.32
2018-04-17T11:48:37.541Z,101259.81
2018-04-17T11:51:05.084Z,101256.79
2018-04-17T11:53:32.671Z,101261.77
2018-04-17T11:56:00.234Z,101266.21
2018-04-17T11:58:27.760Z,101281.61
2018-04-17T12:00:55.347Z,101269.02
2018-04-17T12:03:22.950Z,101272.31
2018-04-17T12:05:50.503Z,101273.97
2018-04-17T12:08:18.084Z,101278.30
2018-04-17T12:10:46.515Z,101272.96
2018-04-17T12:13:15.291Z,101272.53
2018-04-17T12:15:43.818Z,101275.36
2018-04-17T12:18:11.351Z,101273.22
2018-04-17T12:20:39.547Z,101276.49
2018-04-17T12:23:07.139Z,101279.19
2018-04-17T12:25:34.712Z,101272.80
2018-04-17T12:28:02.311Z,101272.55
2018-04-17T12:30:29.894Z,101275.80
2018-04-17T12:32:57.522Z,101268.64
2018-04-17T12:35:25.050Z,101277.66
2018-04-17T12:37:52.619Z,101271.73
2018-04-17T12:40:21.011Z,101280.01
2018-04-17T12:42:49.506Z,101278.31
2018-04-17T12:45:17.553Z,101287.81
2018-04-17T12:47:45.734Z,101287.54
2018-04-17T12:50:13.296Z,101287.47
2018-04-17T12:52:40.839Z,101294.73
2018-04-17T12:55:09.035Z,101293.20
2018-04-17T12:57:36.585Z,101306.45
2018-04-17T13:00:04.189Z,101299.05
2018-04-17T13:02:31.799Z,101304.72
2018-04-17T13:04:59.358Z,101307.16
2018-04-17T13:07:26.917Z,101312.17
2018-04-17T13:09:55.041Z,101323.09
2018-04-17T13:12:23.598Z,101315.94
2018-04-17T13:14:51.814Z,101315.63
2018-04-17T13:17:20.044Z,101313.00
2018-04-17T13:19:47.607Z,101305.33
2018-04-17T13:22:16.996Z,101313.94
2018-04-17T13:24:44.598Z,101321.41
2018-04-17T13:27:12.726Z,101320.58
2018-04-17T13:29:40.322Z,101315.67
2018-04-17T13:32:08.015Z,101314.94
2018-04-17T13:34:35.612Z,101306.54
2018-04-17T13:37:03.163Z,101303.86
2018-04-17T13:39:30.727Z,101305.80
2018-04-17T13:41:59.162Z,101303.27
2018-04-17T13:44:27.404Z,101301.64
2018-04-17T13:46:54.993Z,101308.48
2018-04-17T13:49:23.272Z,101305.96
2018-04-17T13:51:50.821Z,101313.30
2018-04-17T13:54:18.436Z,101308.75
2018-04-17T13:56:46.060Z,101309.37
2018-04-17T13:59:13.608Z,101306.53
2018-04-17T14:01:41.172Z,101315.90
2018-04-17T14:04:09.002Z,101314.58
2018-04-17T14:06:36.540Z,101311.83
2018-04-17T14:09:04.158Z,101314.33
2018-04-17T14:11:32.183Z,101310.95
2018-04-17T14:14:00.811Z,101314.22
2018-04-17T14:16:29.088Z,101309.55
2018-04-17T14:18:57.378Z,101317.28
2018-04-17T14:21:25.430Z,101318.31
2018-04-17T14:23:52.984Z,101327.26
2018-04-17T14:26:20.520Z,101322.90
2018-04-17T14:28:48.126Z,101318.76
2018-04-17T14:31:15.667Z,101320.91
2018-04-17T14:33:43.877Z,101321.20
2018-04-17T14:36:11.421Z,101322.20
2018-04-17T14:38:39.314Z,101321.02
2018-04-17T14:41:07.964Z,101321.80
2018-04-17T14:43:36.347Z,101322.11
2018-04-17T14:46:03.900Z,101325.53
2018-04-17T14:48:32.173Z,101320.45
2018-04-17T14:50:59.722Z,101319.61
2018-04-17T14:53:27.258Z,101319.03
2018-04-17T14:55:54.827Z,101319.74
2018-04-17T14:58:22.375Z,101319.64
2018-04-17T15:00:49.931Z,101316.91
2018-04-17T15:03:17.526Z,101315.20
2018-04-17T15:05:45.071Z,101305.98
2018-04-17T15:08:12.610Z,101313.38
2018-04-17T15:10:40.716Z,101312.64
2018-04-17T15:13:08.958Z,101320.50
2018-04-17T15:15:36.513Z,101315.31
2018-04-17T15:18:04.640Z,101309.16
2018-04-17T15:20:32.234Z,101304.47
2018-04-17T15:23:00.318Z,101316.09
2018-04-17T15:25:27.857Z,101318.31
2018-04-17T15:27:55.390Z,101314.02
2018-04-17T15:30:22.962Z,101318.28
2018-04-17T15:32:50.504Z,101321.06
2018-04-17T15:35:18.453Z,101325.34
2018-04-17T15:37:45.987Z,101317.81
2018-04-17T15:40:14.294Z,101326.70
2018-04-17T15:42:42.487Z,101328.48
2018-04-17T15:45:11.750Z,101326.46
2018-04-17T15:47:40.804Z,101328.03
2018-04-17T15:50:08.700Z,101332.12
2018-04-17T15:52:36.236Z,101334.83
2018-04-17T15:55:03.831Z,101346.80
2018-04-17T15:57:31.354Z,101337.97
2018-04-17T15:59:58.894Z,101340.36
2018-04-17T16:02:26.970Z,101339.33
2018-04-17T16:04:54.526Z,101346.59
2018-04-17T16:07:22.072Z,101346.28
2018-04-17T16:09:50.305Z,101354.08
2018-04-17T16:12:17.862Z,101348.19
2018-04-17T16:14:46.566Z,101351.42
2018-04-17T16:17:14.901Z,101360.97
2018-04-17T16:19:43.322Z,101355.75
2018-04-17T16:22:11.598Z,101366.73
2018-04-17T16:24:40.686Z,101364.45
2018-04-17T16:27:08.774Z,101381.03
2018-04-17T16:29:36.358Z,101385.66
2018-04-17T16:32:03.925Z,101384.51
2018-04-17T16:34:32.259Z,101394.22
2018-04-17T16:36:59.816Z,101394.41
2018-04-17T16:39:27.422Z,101399.48
2018-04-17T16:41:55.593Z,101407.33
2018-04-17T16:44:23.637Z,101410.59
2018-04-17T16:46:51.317Z,101417.80
2018-04-17T16:49:19.501Z,101419.74
2018-04-17T16:51:47.097Z,101421.36
2018-04-17T16:54:14.717Z,101421.97
2018-04-17T16:56:43.423Z,101423.81
2018-04-17T16:59:11.003Z,101426.42
2018-04-17T17:01:39.583Z,101426.75
2018-04-17T17:04:07.263Z,101430.02
2018-04-17T17:06:34.867Z,101430.50
2018-04-17T17:09:02.976Z,101437.86
2018-04-17T17:11:31.103Z,101441.03
2018-04-17T17:13:59.673Z,101448.42
2018-04-17T17:16:27.966Z,101446.63
2018-04-17T17:18:56.328Z,101449.81
2018-04-17T17:21:23.900Z,101448.05
2018-04-17T17:23:51.796Z,101444.59
2018-04-17T17:26:19.342Z,101443.41
2018-04-17T17:28:46.918Z,101446.41
2018-04-17T17:31:14.491Z,101446.32
2018-04-17T17:33:42.223Z,101442.70
2018-04-17T17:36:11.424Z,101447.23
2018-04-17T17:38:39.326Z,101446.43
2018-04-17T17:41:08.294Z,101441.85
2018-04-17T17:43:36.524Z,101445.52
2018-04-17T17:46:04.103Z,101449.41
2018-04-17T17:48:32.147Z,101455.12
2018-04-17T17:50:59.686Z,101450.34
2018-04-17T17:53:27.237Z,101461.97
2018-04-17T17:55:54.892Z,101458.73
2018-04-17T17:58:22.430Z,101465.72
2018-04-17T18:00:50.535Z,101471.79
2018-04-17T18:03:18.094Z,101472.28
2018-04-17T18:05:45.686Z,101477.38
2018-04-17T18:08:13.264Z,101478.35
2018-04-17T18:10:41.534Z,101488.57
2018-04-17T18:13:09.944Z,101483.01
2018-04-17T18:15:37.535Z,101484.48
2018-04-17T18:18:05.623Z,101485.58
2018-04-17T18:20:33.184Z,101491.50
2018-04-17T18:23:01.185Z,101486.06
2018-04-17T18:25:28.729Z,101492.16
2018-04-17T18:27:56.334Z,101498.14
2018-04-17T18:30:23.917Z,101499.05
2018-04-17T18:32:51.491Z,101501.23
2018-04-17T18:35:19.980Z,101498.83
2018-04-17T18:37:47.581Z,101497.65
2018-04-17T18:40:15.653Z,101498.58
2018-04-17T18:42:43.878Z,101499.34
2018-04-17T18:45:12.033Z,101499.94
2018-04-17T18:47:41.095Z,101508.48
2018-04-17T18:50:09.963Z,101511.72
2018-04-17T18:52:37.716Z,101515.49
2018-04-17T18:55:05.338Z,101506.07
2018-04-17T18:57:32.901Z,101510.25
2018-04-17T19:00:00.457Z,101510.59
2018-04-17T19:02:29.607Z,101505.05
2018-04-17T19:04:57.133Z,101512.77
2018-04-17T19:07:24.693Z,101509.74
2018-04-17T19:09:52.869Z,101518.22
2018-04-17T19:12:20.427Z,101520.72
2018-04-17T19:14:48.859Z,101517.92
2018-04-17T19:17:17.407Z,101528.06
2018-04-17T19:19:45.843Z,101527.69
2018-04-17T19:22:14.016Z,101527.27
2018-04-17T19:24:41.616Z,101528.70
2018-04-17T19:27:09.443Z,101531.17
2018-04-17T19:29:37.057Z,101534.36
2018-04-17T19:32:04.971Z,101533.70
2018-04-17T19:34:33.279Z,101546.27
2018-04-17T19:37:00.834Z,101546.36
2018-04-17T19:39:28.397Z,101544.19
2018-04-17T19:41:56.487Z,101552.24
2018-04-17T19:44:24.981Z,101560.19
2018-04-17T19:46:52.550Z,101564.08
2018-04-17T19:49:21.034Z,101553.08
2018-04-17T19:51:48.569Z,101556.92
2018-04-17T19:54:16.094Z,101555.83
2018-04-17T19:56:43.666Z,101553.91
2018-04-17T19:59:11.190Z,101558.37
2018-04-17T20:01:40.676Z,101557.03
2018-04-17T20:04:09.441Z,101560.95
2018-04-17T20:06:36.979Z,101565.37
2018-04-17T20:09:04.572Z,101576.15
2018-04-17T20:11:32.989Z,101581.24
2018-04-17T20:14:01.199Z,101577.40
2018-04-17T20:16:29.392Z,101586.28
2018-04-17T20:18:57.734Z,101587.10
2018-04-17T20:21:25.265Z,101585.77
2018-04-17T20:23:53.338Z,101587.50
2018-04-17T20:26:21.666Z,101591.45
2018-04-17T20:28:49.215Z,101588.34
2018-04-17T20:31:16.726Z,101586.58
2018-04-17T20:33:44.298Z,101580.91
2018-04-17T20:36:12.443Z,101587.27
2018-04-17T20:38:40.646Z,101590.68
2018-04-17T20:41:09.555Z,101594.27
2018-04-17T20:43:38.155Z,101585.32
2018-04-17T20:46:05.949Z,101595.45
2018-04-17T20:48:34.031Z,101583.41
2018-04-17T20:51:01.589Z,101575.87
2018-04-17T20:53:29.139Z,101574.53
2018-04-17T20:55:56.709Z,101576.97
2018-04-17T20:58:24.250Z,101578.63
2018-04-17T21:00:53.171Z,101587.64
2018-04-17T21:03:20.704Z,101586.13
2018-04-17T21:05:48.255Z,101588.78
2018-04-17T21:08:15.891Z,101590.72
2018-04-17T21:10:44.217Z,101598.31
2018-04-17T21:13:12.531Z,101595.46
2018-04-17T21:15:41.331Z,101600.47
2018-04-17T21:18:10.266Z,101609.81
2018-04-17T21:20:38.109Z,101607.30
2018-04-17T21:23:06.208Z,101610.47
2018-04-17T21:25:33.726Z,101613.30
2018-04-17T21:28:01.306Z,101609.53
2018-04-17T21:30:29.440Z,101611.36
2018-04-17T21:32:56.972Z,101613.61
2018-04-17T21:35:25.336Z,101607.93
2018-04-17T21:37:52.864Z,101613.53
2018-04-17T21:40:20.999Z,101610.02
2018-04-17T21:42:49.090Z,101620.36
2018-04-17T21:45:17.378Z,101627.61
2018-04-17T21:47:45.675Z,101629.56
2018-04-17T21:50:13.246Z,101631.62
2018-04-17T21:52:41.049Z,101636.20
2018-04-17T21:55:08.735Z,101631.86
2018-04-17T21:57:36.266Z,101629.77
2018-04-17T22:00:03.899Z,101635.11
2018-04-17T22:02:31.459Z,101631.26
2018-04-17T22:04:58.982Z,101634.34
